CheckWX is a tool to help pilots better visualize weather data.  It is not intended as a substitute for an official pre-flight weather briefing.

04:31:42 UTC

EHEH METAR
Eindhoven Airport
Eindhoven, The Netherlands
Current

7 mins ago

EHEH 250425Z AUTO 13007KT 100V170 9999 OVC100 09/07 Q1003 BLU 15008KT CAVOK
Observed
Apr-25 @ 04:25 UTC
Wind
  • 130° at 7 KTS
Visibility
10,000+ meters
Flight Rules
VFR
Cloud Levels
  • Overcast at 10,000' AGL
Temperature
C / 48°F
Dewpoint
C / 45°F
Humidity
87%
Altimeter
29.62" Hg
Pressure
1002.92 hPa
Previous

37 mins ago

EHEH 250355Z AUTO 14007KT 100V190 9999 FEW120 09/07 Q1004 BLU
Observed
Apr-25 @ 03:55 UTC
Wind
  • 140° at 7 KTS
Visibility
10,000+ meters
Flight Rules
VFR
Cloud Levels
  • Few at 12,000' AGL
Temperature
C / 48°F
Dewpoint
C / 45°F
Humidity
87%
Altimeter
29.65" Hg
Pressure
1003.92 hPa
Previous

1 hour ago

EHEH 250325Z AUTO 14007KT 100V170 9999 OVC120 09/07 Q1003 BLU
Observed
Apr-25 @ 03:25 UTC
Wind
  • 140° at 7 KTS
Visibility
10,000+ meters
Flight Rules
VFR
Cloud Levels
  • Overcast at 12,000' AGL
Temperature
C / 48°F
Dewpoint
C / 45°F
Humidity
87%
Altimeter
29.62" Hg
Pressure
1002.92 hPa